sensor_id;sensor_type;location;lat;lon;timestamp;P1;durP1;ratioP1;P2;durP2;ratioP2
65533;SDS011;53640;55.838;37.184;2023-07-13T00:00:48;5.70;;;1.98;;
65533;SDS011;53640;55.838;37.184;2023-07-13T00:03:16;3.33;;;1.90;;
65533;SDS011;53640;55.838;37.184;2023-07-13T00:05:43;3.42;;;2.10;;
65533;SDS011;53640;55.838;37.184;2023-07-13T00:08:09;3.83;;;2.28;;
65533;SDS011;53640;55.838;37.184;2023-07-13T00:10:40;4.22;;;2.15;;
65533;SDS011;53640;55.838;37.184;2023-07-13T00:13:08;3.50;;;2.28;;
65533;SDS011;53640;55.838;37.184;2023-07-13T00:15:36;2.47;;;2.25;;
65533;SDS011;53640;55.838;37.184;2023-07-13T00:18:03;2.95;;;2.17;;
65533;SDS011;53640;55.838;37.184;2023-07-13T00:20:30;4.13;;;2.13;;
65533;SDS011;53640;55.838;37.184;2023-07-13T00:22:56;4.60;;;2.28;;
65533;SDS011;53640;55.838;37.184;2023-07-13T00:25:23;2.67;;;2.15;;
65533;SDS011;53640;55.838;37.184;2023-07-13T00:27:55;3.40;;;2.20;;
65533;SDS011;53640;55.838;37.184;2023-07-13T00:30:21;3.22;;;2.17;;
65533;SDS011;53640;55.838;37.184;2023-07-13T00:32:49;4.38;;;2.05;;
65533;SDS011;53640;55.838;37.184;2023-07-13T00:35:16;3.70;;;2.10;;
65533;SDS011;53640;55.838;37.184;2023-07-13T00:37:43;3.30;;;2.13;;
65533;SDS011;53640;55.838;37.184;2023-07-13T00:40:11;2.10;;;1.80;;
65533;SDS011;53640;55.838;37.184;2023-07-13T00:42:39;4.00;;;2.17;;
65533;SDS011;53640;55.838;37.184;2023-07-13T00:47:40;3.28;;;2.00;;
65533;SDS011;53640;55.838;37.184;2023-07-13T00:50:11;4.68;;;2.00;;
65533;SDS011;53640;55.838;37.184;2023-07-13T00:52:43;2.17;;;1.90;;
65533;SDS011;53640;55.838;37.184;2023-07-13T00:55:12;2.35;;;1.92;;
65533;SDS011;53640;55.838;37.184;2023-07-13T00:57:42;5.72;;;2.10;;
65533;SDS011;53640;55.838;37.184;2023-07-13T01:00:09;3.53;;;1.80;;
65533;SDS011;53640;55.838;37.184;2023-07-13T01:02:39;2.13;;;1.88;;
65533;SDS011;53640;55.838;37.184;2023-07-13T01:05:11;3.33;;;2.10;;
65533;SDS011;53640;55.838;37.184;2023-07-13T01:07:43;2.47;;;2.10;;
65533;SDS011;53640;55.838;37.184;2023-07-13T01:10:12;3.33;;;1.80;;
65533;SDS011;53640;55.838;37.184;2023-07-13T01:12:39;3.17;;;2.38;;
65533;SDS011;53640;55.838;37.184;2023-07-13T01:15:32;5.60;;;2.25;;
65533;SDS011;53640;55.838;37.184;2023-07-13T01:18:05;3.85;;;2.10;;
65533;SDS011;53640;55.838;37.184;2023-07-13T01:20:35;2.67;;;2.45;;
65533;SDS011;53640;55.838;37.184;2023-07-13T01:23:09;2.40;;;2.10;;
65533;SDS011;53640;55.838;37.184;2023-07-13T01:25:39;5.03;;;2.10;;
65533;SDS011;53640;55.838;37.184;2023-07-13T01:28:06;3.17;;;2.35;;
65533;SDS011;53640;55.838;37.184;2023-07-13T01:30:35;2.80;;;2.08;;
65533;SDS011;53640;55.838;37.184;2023-07-13T01:33:09;3.30;;;2.53;;
65533;SDS011;53640;55.838;37.184;2023-07-13T01:35:35;2.20;;;2.00;;
65533;SDS011;53640;55.838;37.184;2023-07-13T01:38:02;2.20;;;2.05;;
65533;SDS011;53640;55.838;37.184;2023-07-13T01:40:29;3.38;;;2.30;;
65533;SDS011;53640;55.838;37.184;2023-07-13T01:42:58;1.90;;;1.80;;
65533;SDS011;53640;55.838;37.184;2023-07-13T01:45:25;2.13;;;2.03;;
65533;SDS011;53640;55.838;37.184;2023-07-13T01:47:52;3.05;;;1.80;;
65533;SDS011;53640;55.838;37.184;2023-07-13T01:50:18;2.03;;;1.88;;
65533;SDS011;53640;55.838;37.184;2023-07-13T01:52:46;1.92;;;1.63;;
65533;SDS011;53640;55.838;37.184;2023-07-13T01:55:14;2.45;;;1.85;;
65533;SDS011;53640;55.838;37.184;2023-07-13T01:57:41;4.75;;;2.30;;
65533;SDS011;53640;55.838;37.184;2023-07-13T02:00:08;2.08;;;1.98;;
65533;SDS011;53640;55.838;37.184;2023-07-13T02:02:43;2.25;;;1.80;;
65533;SDS011;53640;55.838;37.184;2023-07-13T02:05:11;4.20;;;1.70;;
65533;SDS011;53640;55.838;37.184;2023-07-13T02:07:39;2.50;;;2.30;;
65533;SDS011;53640;55.838;37.184;2023-07-13T02:10:07;2.75;;;1.83;;
65533;SDS011;53640;55.838;37.184;2023-07-13T02:12:35;3.63;;;2.20;;
65533;SDS011;53640;55.838;37.184;2023-07-13T02:15:03;3.60;;;2.05;;
65533;SDS011;53640;55.838;37.184;2023-07-13T02:17:34;2.78;;;2.03;;
65533;SDS011;53640;55.838;37.184;2023-07-13T02:20:03;2.20;;;2.00;;
65533;SDS011;53640;55.838;37.184;2023-07-13T02:22:33;2.13;;;2.00;;
65533;SDS011;53640;55.838;37.184;2023-07-13T02:25:00;3.13;;;2.40;;
65533;SDS011;53640;55.838;37.184;2023-07-13T02:27:27;1.88;;;1.77;;
65533;SDS011;53640;55.838;37.184;2023-07-13T02:29:54;2.67;;;2.13;;
65533;SDS011;53640;55.838;37.184;2023-07-13T02:32:21;3.67;;;2.17;;
65533;SDS011;53640;55.838;37.184;2023-07-13T02:34:51;3.47;;;2.40;;
65533;SDS011;53640;55.838;37.184;2023-07-13T02:37:19;3.72;;;2.33;;
65533;SDS011;53640;55.838;37.184;2023-07-13T02:39:46;6.35;;;2.45;;
65533;SDS011;53640;55.838;37.184;2023-07-13T02:42:14;4.50;;;2.22;;
65533;SDS011;53640;55.838;37.184;2023-07-13T02:44:42;2.80;;;1.70;;
65533;SDS011;53640;55.838;37.184;2023-07-13T02:47:10;7.07;;;2.45;;
65533;SDS011;53640;55.838;37.184;2023-07-13T02:49:36;3.72;;;2.00;;
65533;SDS011;53640;55.838;37.184;2023-07-13T02:52:03;2.33;;;2.00;;
65533;SDS011;53640;55.838;37.184;2023-07-13T02:54:31;2.13;;;1.92;;
65533;SDS011;53640;55.838;37.184;2023-07-13T02:56:57;2.08;;;1.88;;
65533;SDS011;53640;55.838;37.184;2023-07-13T02:59:26;3.78;;;1.90;;
65533;SDS011;53640;55.838;37.184;2023-07-13T03:01:53;1.80;;;1.70;;
65533;SDS011;53640;55.838;37.184;2023-07-13T03:04:19;5.15;;;2.67;;
65533;SDS011;53640;55.838;37.184;2023-07-13T03:06:46;1.80;;;1.70;;
65533;SDS011;53640;55.838;37.184;2023-07-13T03:09:15;2.15;;;1.75;;
65533;SDS011;53640;55.838;37.184;2023-07-13T03:11:48;3.40;;;1.88;;
65533;SDS011;53640;55.838;37.184;2023-07-13T03:14:35;2.70;;;1.83;;
65533;SDS011;53640;55.838;37.184;2023-07-13T03:17:04;2.20;;;2.10;;
65533;SDS011;53640;55.838;37.184;2023-07-13T03:19:37;2.00;;;1.90;;
65533;SDS011;53640;55.838;37.184;2023-07-13T03:22:04;2.47;;;2.20;;
65533;SDS011;53640;55.838;37.184;2023-07-13T03:24:32;2.15;;;1.75;;
65533;SDS011;53640;55.838;37.184;2023-07-13T03:27:01;3.53;;;1.80;;
65533;SDS011;53640;55.838;37.184;2023-07-13T03:29:31;4.63;;;1.67;;
65533;SDS011;53640;55.838;37.184;2023-07-13T03:31:58;2.03;;;1.80;;
65533;SDS011;53640;55.838;37.184;2023-07-13T03:34:25;2.08;;;1.98;;
65533;SDS011;53640;55.838;37.184;2023-07-13T03:36:56;2.72;;;2.38;;
65533;SDS011;53640;55.838;37.184;2023-07-13T03:39:24;2.45;;;1.95;;
65533;SDS011;53640;55.838;37.184;2023-07-13T03:41:54;2.00;;;1.90;;
65533;SDS011;53640;55.838;37.184;2023-07-13T03:44:22;4.18;;;1.83;;
65533;SDS011;53640;55.838;37.184;2023-07-13T03:46:53;4.22;;;2.00;;
65533;SDS011;53640;55.838;37.184;2023-07-13T03:49:21;1.90;;;1.80;;
65533;SDS011;53640;55.838;37.184;2023-07-13T03:51:47;2.20;;;2.00;;
65533;SDS011;53640;55.838;37.184;2023-07-13T03:54:15;3.25;;;1.63;;
65533;SDS011;53640;55.838;37.184;2023-07-13T03:56:43;1.70;;;1.60;;
65533;SDS011;53640;55.838;37.184;2023-07-13T03:59:10;2.40;;;1.92;;
65533;SDS011;53640;55.838;37.184;2023-07-13T04:01:38;3.95;;;2.10;;
65533;SDS011;53640;55.838;37.184;2023-07-13T04:04:06;2.67;;;1.83;;
65533;SDS011;53640;55.838;37.184;2023-07-13T04:06:33;2.50;;;1.70;;
65533;SDS011;53640;55.838;37.184;2023-07-13T04:09:01;1.77;;;1.67;;
65533;SDS011;53640;55.838;37.184;2023-07-13T04:11:33;6.47;;;1.90;;
65533;SDS011;53640;55.838;37.184;2023-07-13T04:14:02;2.38;;;1.77;;
65533;SDS011;53640;55.838;37.184;2023-07-13T04:16:35;1.65;;;1.55;;
65533;SDS011;53640;55.838;37.184;2023-07-13T04:19:02;1.90;;;1.50;;
65533;SDS011;53640;55.838;37.184;2023-07-13T04:21:29;1.88;;;1.63;;
65533;SDS011;53640;55.838;37.184;2023-07-13T04:23:57;2.05;;;1.52;;
65533;SDS011;53640;55.838;37.184;2023-07-13T04:26:25;1.90;;;1.65;;
65533;SDS011;53640;55.838;37.184;2023-07-13T04:28:53;4.30;;;1.40;;
65533;SDS011;53640;55.838;37.184;2023-07-13T04:31:21;7.47;;;2.25;;
65533;SDS011;53640;55.838;37.184;2023-07-13T04:33:48;2.78;;;1.58;;
65533;SDS011;53640;55.838;37.184;2023-07-13T04:36:16;2.97;;;2.05;;
65533;SDS011;53640;55.838;37.184;2023-07-13T04:38:45;3.47;;;2.17;;
65533;SDS011;53640;55.838;37.184;2023-07-13T04:41:13;2.22;;;1.75;;
65533;SDS011;53640;55.838;37.184;2023-07-13T04:43:41;5.45;;;1.70;;
65533;SDS011;53640;55.838;37.184;2023-07-13T04:46:12;9.38;;;2.53;;
65533;SDS011;53640;55.838;37.184;2023-07-13T04:48:40;4.25;;;2.17;;
65533;SDS011;53640;55.838;37.184;2023-07-13T04:51:07;1.70;;;1.60;;
65533;SDS011;53640;55.838;37.184;2023-07-13T04:53:45;2.40;;;1.90;;
65533;SDS011;53640;55.838;37.184;2023-07-13T04:56:13;3.10;;;1.60;;
65533;SDS011;53640;55.838;37.184;2023-07-13T04:58:40;2.13;;;1.90;;
65533;SDS011;53640;55.838;37.184;2023-07-13T05:01:07;2.17;;;1.95;;
65533;SDS011;53640;55.838;37.184;2023-07-13T05:03:34;3.53;;;1.83;;
65533;SDS011;53640;55.838;37.184;2023-07-13T05:06:02;2.17;;;1.80;;
65533;SDS011;53640;55.838;37.184;2023-07-13T05:08:31;1.60;;;1.50;;
65533;SDS011;53640;55.838;37.184;2023-07-13T05:11:01;2.13;;;2.03;;
65533;SDS011;53640;55.838;37.184;2023-07-13T05:13:29;2.58;;;2.22;;
65533;SDS011;53640;55.838;37.184;2023-07-13T05:15:59;2.75;;;2.30;;
65533;SDS011;53640;55.838;37.184;2023-07-13T05:18:30;2.30;;;1.90;;
65533;SDS011;53640;55.838;37.184;2023-07-13T05:20:58;1.90;;;1.80;;
65533;SDS011;53640;55.838;37.184;2023-07-13T05:23:27;2.83;;;1.70;;
65533;SDS011;53640;55.838;37.184;2023-07-13T05:25:53;2.35;;;1.60;;
65533;SDS011;53640;55.838;37.184;2023-07-13T05:28:20;2.25;;;1.70;;
65533;SDS011;53640;55.838;37.184;2023-07-13T05:30:48;1.85;;;1.60;;
65533;SDS011;53640;55.838;37.184;2023-07-13T05:33:15;3.10;;;1.83;;
65533;SDS011;53640;55.838;37.184;2023-07-13T05:35:42;2.40;;;1.65;;
65533;SDS011;53640;55.838;37.184;2023-07-13T05:38:09;1.92;;;1.40;;
65533;SDS011;53640;55.838;37.184;2023-07-13T05:40:36;3.22;;;1.83;;
65533;SDS011;53640;55.838;37.184;2023-07-13T05:43:03;1.70;;;1.60;;
65533;SDS011;53640;55.838;37.184;2023-07-13T05:45:31;2.78;;;1.50;;
65533;SDS011;53640;55.838;37.184;2023-07-13T05:47:57;4.60;;;1.80;;
65533;SDS011;53640;55.838;37.184;2023-07-13T05:50:25;8.90;;;2.00;;
65533;SDS011;53640;55.838;37.184;2023-07-13T05:52:52;4.93;;;1.70;;
65533;SDS011;53640;55.838;37.184;2023-07-13T05:55:19;1.80;;;1.70;;
65533;SDS011;53640;55.838;37.184;2023-07-13T05:57:46;1.65;;;1.55;;
65533;SDS011;53640;55.838;37.184;2023-07-13T06:00:14;1.98;;;1.55;;
65533;SDS011;53640;55.838;37.184;2023-07-13T06:02:41;2.47;;;1.77;;
65533;SDS011;53640;55.838;37.184;2023-07-13T06:05:07;3.45;;;1.50;;
65533;SDS011;53640;55.838;37.184;2023-07-13T06:07:34;1.60;;;1.50;;
65533;SDS011;53640;55.838;37.184;2023-07-13T06:10:00;2.38;;;1.83;;
65533;SDS011;53640;55.838;37.184;2023-07-13T06:12:30;7.00;;;1.98;;
65533;SDS011;53640;55.838;37.184;2023-07-13T06:14:56;1.42;;;1.33;;
65533;SDS011;53640;55.838;37.184;2023-07-13T06:17:23;1.38;;;1.27;;
65533;SDS011;53640;55.838;37.184;2023-07-13T06:19:50;2.33;;;1.60;;
65533;SDS011;53640;55.838;37.184;2023-07-13T06:22:16;4.97;;;1.85;;
65533;SDS011;53640;55.838;37.184;2023-07-13T06:24:43;1.30;;;1.20;;
65533;SDS011;53640;55.838;37.184;2023-07-13T06:27:09;2.95;;;1.90;;
65533;SDS011;53640;55.838;37.184;2023-07-13T06:29:43;2.38;;;1.60;;
65533;SDS011;53640;55.838;37.184;2023-07-13T06:32:11;2.17;;;1.50;;
65533;SDS011;53640;55.838;37.184;2023-07-13T06:34:37;7.35;;;1.60;;
65533;SDS011;53640;55.838;37.184;2023-07-13T06:37:03;3.47;;;1.67;;
65533;SDS011;53640;55.838;37.184;2023-07-13T06:39:30;3.17;;;1.92;;
65533;SDS011;53640;55.838;37.184;2023-07-13T06:41:56;1.95;;;1.70;;
65533;SDS011;53640;55.838;37.184;2023-07-13T06:44:24;1.67;;;1.55;;
65533;SDS011;53640;55.838;37.184;2023-07-13T06:46:51;1.30;;;1.30;;
65533;SDS011;53640;55.838;37.184;2023-07-13T06:49:23;2.63;;;1.70;;
65533;SDS011;53640;55.838;37.184;2023-07-13T06:51:49;1.85;;;1.75;;
65533;SDS011;53640;55.838;37.184;2023-07-13T06:54:15;1.60;;;1.50;;
65533;SDS011;53640;55.838;37.184;2023-07-13T06:56:42;2.65;;;1.75;;
65533;SDS011;53640;55.838;37.184;2023-07-13T06:59:08;2.53;;;1.40;;
65533;SDS011;53640;55.838;37.184;2023-07-13T07:01:35;2.90;;;1.77;;
65533;SDS011;53640;55.838;37.184;2023-07-13T07:04:01;2.75;;;1.67;;
65533;SDS011;53640;55.838;37.184;2023-07-13T07:06:39;1.83;;;1.73;;
65533;SDS011;53640;55.838;37.184;2023-07-13T07:09:24;1.70;;;1.55;;
65533;SDS011;53640;55.838;37.184;2023-07-13T07:12:03;2.00;;;1.52;;
65533;SDS011;53640;55.838;37.184;2023-07-13T07:14:30;6.18;;;1.63;;
65533;SDS011;53640;55.838;37.184;2023-07-13T07:16:57;3.45;;;1.70;;
65533;SDS011;53640;55.838;37.184;2023-07-13T07:19:24;2.35;;;1.63;;
65533;SDS011;53640;55.838;37.184;2023-07-13T07:21:53;2.63;;;1.83;;
65533;SDS011;53640;55.838;37.184;2023-07-13T07:24:20;3.53;;;1.48;;
65533;SDS011;53640;55.838;37.184;2023-07-13T07:26:46;3.90;;;1.80;;
65533;SDS011;53640;55.838;37.184;2023-07-13T07:29:13;4.07;;;2.17;;
65533;SDS011;53640;55.838;37.184;2023-07-13T07:31:41;2.42;;;1.80;;
65533;SDS011;53640;55.838;37.184;2023-07-13T07:34:13;3.83;;;1.90;;
65533;SDS011;53640;55.838;37.184;2023-07-13T07:36:40;4.95;;;1.80;;
65533;SDS011;53640;55.838;37.184;2023-07-13T07:39:06;4.80;;;1.60;;
65533;SDS011;53640;55.838;37.184;2023-07-13T07:41:38;5.65;;;2.13;;
65533;SDS011;53640;55.838;37.184;2023-07-13T07:45:08;3.40;;;2.03;;
65533;SDS011;53640;55.838;37.184;2023-07-13T07:47:38;5.25;;;2.20;;
65533;SDS011;53640;55.838;37.184;2023-07-13T07:50:05;5.32;;;2.13;;
65533;SDS011;53640;55.838;37.184;2023-07-13T07:52:32;6.45;;;2.22;;
65533;SDS011;53640;55.838;37.184;2023-07-13T07:54:58;3.75;;;2.47;;
65533;SDS011;53640;55.838;37.184;2023-07-13T07:57:25;6.90;;;2.17;;
65533;SDS011;53640;55.838;37.184;2023-07-13T07:59:51;4.35;;;2.10;;
65533;SDS011;53640;55.838;37.184;2023-07-13T08:02:18;3.33;;;2.00;;
65533;SDS011;53640;55.838;37.184;2023-07-13T08:04:44;4.32;;;2.70;;
65533;SDS011;53640;55.838;37.184;2023-07-13T08:07:12;2.63;;;1.98;;
65533;SDS011;53640;55.838;37.184;2023-07-13T08:09:39;3.00;;;2.00;;
65533;SDS011;53640;55.838;37.184;2023-07-13T08:12:05;6.28;;;1.80;;
65533;SDS011;53640;55.838;37.184;2023-07-13T08:14:33;2.78;;;1.92;;
65533;SDS011;53640;55.838;37.184;2023-07-13T08:16:59;3.92;;;2.08;;
65533;SDS011;53640;55.838;37.184;2023-07-13T08:19:27;3.25;;;2.03;;
65533;SDS011;53640;55.838;37.184;2023-07-13T08:21:55;2.42;;;1.88;;
65533;SDS011;53640;55.838;37.184;2023-07-13T08:24:22;4.07;;;2.20;;
65533;SDS011;53640;55.838;37.184;2023-07-13T08:26:51;6.25;;;2.03;;
65533;SDS011;53640;55.838;37.184;2023-07-13T08:29:18;2.80;;;2.10;;
65533;SDS011;53640;55.838;37.184;2023-07-13T08:31:44;2.85;;;2.08;;
65533;SDS011;53640;55.838;37.184;2023-07-13T08:34:11;4.43;;;2.30;;
65533;SDS011;53640;55.838;37.184;2023-07-13T08:36:38;3.35;;;2.00;;
65533;SDS011;53640;55.838;37.184;2023-07-13T08:39:06;4.03;;;2.40;;
65533;SDS011;53640;55.838;37.184;2023-07-13T08:41:33;4.40;;;2.00;;
65533;SDS011;53640;55.838;37.184;2023-07-13T08:44:01;2.47;;;1.95;;
65533;SDS011;53640;55.838;37.184;2023-07-13T08:46:34;3.33;;;1.73;;
65533;SDS011;53640;55.838;37.184;2023-07-13T08:51:47;3.05;;;1.80;;
65533;SDS011;53640;55.838;37.184;2023-07-13T08:54:25;2.35;;;1.83;;
65533;SDS011;53640;55.838;37.184;2023-07-13T08:56:57;2.25;;;2.05;;
65533;SDS011;53640;55.838;37.184;2023-07-13T08:59:28;3.55;;;2.20;;
65533;SDS011;53640;55.838;37.184;2023-07-13T09:02:09;3.17;;;2.08;;
65533;SDS011;53640;55.838;37.184;2023-07-13T09:07:32;1.90;;;1.80;;
65533;SDS011;53640;55.838;37.184;2023-07-13T09:10:23;2.55;;;1.80;;
65533;SDS011;53640;55.838;37.184;2023-07-13T09:15:54;3.38;;;2.10;;
65533;SDS011;53640;55.838;37.184;2023-07-13T09:18:35;5.65;;;2.22;;
65533;SDS011;53640;55.838;37.184;2023-07-13T09:21:14;3.25;;;1.70;;
65533;SDS011;53640;55.838;37.184;2023-07-13T09:23:43;1.98;;;1.73;;
65533;SDS011;53640;55.838;37.184;2023-07-13T09:26:14;3.25;;;2.05;;
65533;SDS011;53640;55.838;37.184;2023-07-13T09:28:48;2.13;;;1.67;;
65533;SDS011;53640;55.838;37.184;2023-07-13T09:31:32;6.65;;;1.92;;
65533;SDS011;53640;55.838;37.184;2023-07-13T09:34:04;1.90;;;1.80;;
65533;SDS011;53640;55.838;37.184;2023-07-13T09:36:36;3.30;;;1.88;;
65533;SDS011;53640;55.838;37.184;2023-07-13T09:39:04;3.10;;;1.90;;
65533;SDS011;53640;55.838;37.184;2023-07-13T09:41:44;2.80;;;2.05;;
65533;SDS011;53640;55.838;37.184;2023-07-13T09:44:16;6.25;;;4.00;;
65533;SDS011;53640;55.838;37.184;2023-07-13T09:46:54;5.50;;;2.50;;
65533;SDS011;53640;55.838;37.184;2023-07-13T09:49:26;4.38;;;2.10;;
65533;SDS011;53640;55.838;37.184;2023-07-13T09:51:57;3.37;;;2.30;;
65533;SDS011;53640;55.838;37.184;2023-07-13T09:54:37;4.55;;;2.25;;
65533;SDS011;53640;55.838;37.184;2023-07-13T09:59:57;2.65;;;2.30;;
65533;SDS011;53640;55.838;37.184;2023-07-13T10:02:26;3.53;;;2.20;;
65533;SDS011;53640;55.838;37.184;2023-07-13T10:05:00;5.30;;;2.20;;
65533;SDS011;53640;55.838;37.184;2023-07-13T10:07:31;4.30;;;1.80;;
65533;SDS011;53640;55.838;37.184;2023-07-13T10:10:12;2.47;;;2.28;;
65533;SDS011;53640;55.838;37.184;2023-07-13T10:12:41;2.53;;;2.13;;
65533;SDS011;53640;55.838;37.184;2023-07-13T10:15:22;2.35;;;2.15;;
65533;SDS011;53640;55.838;37.184;2023-07-13T10:17:52;3.03;;;2.20;;
65533;SDS011;53640;55.838;37.184;2023-07-13T10:20:21;3.35;;;2.25;;
65533;SDS011;53640;55.838;37.184;2023-07-13T10:22:55;3.25;;;2.30;;
65533;SDS011;53640;55.838;37.184;2023-07-13T10:25:31;3.05;;;1.98;;
65533;SDS011;53640;55.838;37.184;2023-07-13T10:28:25;5.50;;;2.58;;
65533;SDS011;53640;55.838;37.184;2023-07-13T10:30:59;3.30;;;2.35;;
65533;SDS011;53640;55.838;37.184;2023-07-13T10:33:27;4.28;;;2.53;;
65533;SDS011;53640;55.838;37.184;2023-07-13T10:35:59;3.75;;;2.65;;
65533;SDS011;53640;55.838;37.184;2023-07-13T10:38:39;5.82;;;2.88;;
65533;SDS011;53640;55.838;37.184;2023-07-13T10:41:08;3.53;;;2.63;;
65533;SDS011;53640;55.838;37.184;2023-07-13T10:43:39;3.08;;;2.50;;
65533;SDS011;53640;55.838;37.184;2023-07-13T10:46:13;2.30;;;2.10;;
65533;SDS011;53640;55.838;37.184;2023-07-13T10:48:41;4.20;;;2.47;;
65533;SDS011;53640;55.838;37.184;2023-07-13T10:51:12;3.00;;;2.10;;
65533;SDS011;53640;55.838;37.184;2023-07-13T10:53:40;3.53;;;2.25;;
65533;SDS011;53640;55.838;37.184;2023-07-13T11:01:52;3.15;;;1.98;;
65533;SDS011;53640;55.838;37.184;2023-07-13T11:04:22;2.22;;;2.00;;
65533;SDS011;53640;55.838;37.184;2023-07-13T11:06:52;1.65;;;1.58;;
65533;SDS011;53640;55.838;37.184;2023-07-13T11:09:36;2.30;;;1.60;;
65533;SDS011;53640;55.838;37.184;2023-07-13T11:20:10;4.45;;;2.10;;
65533;SDS011;53640;55.838;37.184;2023-07-13T11:22:48;2.38;;;2.10;;
65533;SDS011;53640;55.838;37.184;2023-07-13T11:25:25;4.72;;;2.80;;
65533;SDS011;53640;55.838;37.184;2023-07-13T11:28:15;4.32;;;2.20;;
65533;SDS011;53640;55.838;37.184;2023-07-13T11:34:10;2.40;;;2.17;;
65533;SDS011;53640;55.838;37.184;2023-07-13T11:36:13;2.28;;;2.05;;
65533;SDS011;53640;55.838;37.184;2023-07-13T11:38:47;2.10;;;1.90;;
65533;SDS011;53640;55.838;37.184;2023-07-13T11:41:27;1.90;;;1.80;;
65533;SDS011;53640;55.838;37.184;2023-07-13T11:43:56;1.77;;;1.60;;
65533;SDS011;53640;55.838;37.184;2023-07-13T11:46:31;4.40;;;2.10;;
65533;SDS011;53640;55.838;37.184;2023-07-13T11:48:58;4.07;;;2.45;;
65533;SDS011;53640;55.838;37.184;2023-07-13T11:51:30;5.05;;;2.33;;
65533;SDS011;53640;55.838;37.184;2023-07-13T11:54:02;2.38;;;2.17;;
65533;SDS011;53640;55.838;37.184;2023-07-13T11:56:33;2.67;;;2.38;;
65533;SDS011;53640;55.838;37.184;2023-07-13T11:59:04;2.90;;;2.13;;
65533;SDS011;53640;55.838;37.184;2023-07-13T12:01:34;2.95;;;2.55;;
65533;SDS011;53640;55.838;37.184;2023-07-13T12:06:56;3.35;;;2.53;;
65533;SDS011;53640;55.838;37.184;2023-07-13T12:12:02;3.95;;;2.78;;
65533;SDS011;53640;55.838;37.184;2023-07-13T12:14:33;4.32;;;2.30;;
65533;SDS011;53640;55.838;37.184;2023-07-13T12:16:59;2.70;;;2.28;;
65533;SDS011;53640;55.838;37.184;2023-07-13T12:19:27;2.30;;;2.10;;
65533;SDS011;53640;55.838;37.184;2023-07-13T12:21:55;2.72;;;2.13;;
65533;SDS011;53640;55.838;37.184;2023-07-13T12:24:24;3.58;;;2.25;;
65533;SDS011;53640;55.838;37.184;2023-07-13T12:26:58;2.28;;;2.00;;
65533;SDS011;53640;55.838;37.184;2023-07-13T12:29:27;3.58;;;2.35;;
65533;SDS011;53640;55.838;37.184;2023-07-13T12:31:55;5.28;;;2.60;;
65533;SDS011;53640;55.838;37.184;2023-07-13T12:34:22;3.38;;;2.50;;
65533;SDS011;53640;55.838;37.184;2023-07-13T12:36:55;3.50;;;2.63;;
65533;SDS011;53640;55.838;37.184;2023-07-13T12:39:27;3.47;;;2.42;;
65533;SDS011;53640;55.838;37.184;2023-07-13T12:42:09;3.67;;;2.10;;
65533;SDS011;53640;55.838;37.184;2023-07-13T12:47:23;2.60;;;2.20;;
65533;SDS011;53640;55.838;37.184;2023-07-13T12:49:54;2.17;;;1.98;;
65533;SDS011;53640;55.838;37.184;2023-07-13T12:52:30;4.93;;;2.40;;
65533;SDS011;53640;55.838;37.184;2023-07-13T12:55:13;2.25;;;1.90;;
65533;SDS011;53640;55.838;37.184;2023-07-13T12:57:50;2.78;;;1.90;;
65533;SDS011;53640;55.838;37.184;2023-07-13T13:00:29;2.05;;;1.90;;
65533;SDS011;53640;55.838;37.184;2023-07-13T13:03:12;3.28;;;1.98;;
65533;SDS011;53640;55.838;37.184;2023-07-13T13:06:03;2.08;;;1.90;;
65533;SDS011;53640;55.838;37.184;2023-07-13T13:08:50;4.65;;;2.40;;
65533;SDS011;53640;55.838;37.184;2023-07-13T13:11:20;3.08;;;2.10;;
65533;SDS011;53640;55.838;37.184;2023-07-13T13:13:49;3.60;;;2.53;;
65533;SDS011;53640;55.838;37.184;2023-07-13T13:18:53;2.22;;;2.03;;
65533;SDS011;53640;55.838;37.184;2023-07-13T13:21:23;3.25;;;1.90;;
65533;SDS011;53640;55.838;37.184;2023-07-13T13:23:51;3.20;;;2.05;;
65533;SDS011;53640;55.838;37.184;2023-07-13T13:26:19;3.00;;;1.98;;
65533;SDS011;53640;55.838;37.184;2023-07-13T13:28:47;4.70;;;2.90;;
65533;SDS011;53640;55.838;37.184;2023-07-13T13:31:14;5.25;;;2.25;;
65533;SDS011;53640;55.838;37.184;2023-07-13T13:33:42;4.70;;;2.53;;
65533;SDS011;53640;55.838;37.184;2023-07-13T13:38:43;2.65;;;2.00;;
65533;SDS011;53640;55.838;37.184;2023-07-13T13:41:10;3.03;;;2.20;;
65533;SDS011;53640;55.838;37.184;2023-07-13T13:43:39;3.85;;;2.35;;
65533;SDS011;53640;55.838;37.184;2023-07-13T13:46:26;2.72;;;2.47;;
65533;SDS011;53640;55.838;37.184;2023-07-13T13:48:55;3.63;;;2.50;;
65533;SDS011;53640;55.838;37.184;2023-07-13T13:51:23;2.70;;;2.50;;
65533;SDS011;53640;55.838;37.184;2023-07-13T13:53:50;2.83;;;2.10;;
65533;SDS011;53640;55.838;37.184;2023-07-13T13:56:17;4.38;;;2.25;;
65533;SDS011;53640;55.838;37.184;2023-07-13T13:58:45;3.13;;;2.50;;
65533;SDS011;53640;55.838;37.184;2023-07-13T14:01:21;2.55;;;2.35;;
65533;SDS011;53640;55.838;37.184;2023-07-13T14:03:50;4.45;;;2.78;;
65533;SDS011;53640;55.838;37.184;2023-07-13T14:06:19;3.58;;;2.60;;
65533;SDS011;53640;55.838;37.184;2023-07-13T14:08:48;3.83;;;2.47;;
65533;SDS011;53640;55.838;37.184;2023-07-13T14:11:15;4.70;;;2.83;;
65533;SDS011;53640;55.838;37.184;2023-07-13T14:13:45;3.88;;;3.05;;
65533;SDS011;53640;55.838;37.184;2023-07-13T14:16:17;3.75;;;2.63;;
65533;SDS011;53640;55.838;37.184;2023-07-13T14:18:45;4.97;;;3.22;;
65533;SDS011;53640;55.838;37.184;2023-07-13T14:21:14;5.05;;;2.90;;
65533;SDS011;53640;55.838;37.184;2023-07-13T14:23:43;5.30;;;2.83;;
65533;SDS011;53640;55.838;37.184;2023-07-13T14:26:10;6.50;;;3.33;;
65533;SDS011;53640;55.838;37.184;2023-07-13T14:28:43;3.38;;;2.90;;
65533;SDS011;53640;55.838;37.184;2023-07-13T14:31:13;4.45;;;2.63;;
65533;SDS011;53640;55.838;37.184;2023-07-13T14:33:41;3.03;;;2.55;;
65533;SDS011;53640;55.838;37.184;2023-07-13T14:39:22;5.20;;;3.08;;
65533;SDS011;53640;55.838;37.184;2023-07-13T14:41:51;14.63;;;3.08;;
65533;SDS011;53640;55.838;37.184;2023-07-13T14:44:27;4.65;;;3.15;;
65533;SDS011;53640;55.838;37.184;2023-07-13T14:46:56;4.00;;;2.95;;
65533;SDS011;53640;55.838;37.184;2023-07-13T14:52:21;4.25;;;3.00;;
65533;SDS011;53640;55.838;37.184;2023-07-13T14:54:52;8.93;;;3.38;;
65533;SDS011;53640;55.838;37.184;2023-07-13T14:57:19;5.22;;;3.10;;
65533;SDS011;53640;55.838;37.184;2023-07-13T14:59:47;6.38;;;3.38;;
65533;SDS011;53640;55.838;37.184;2023-07-13T15:02:15;3.35;;;2.80;;
65533;SDS011;53640;55.838;37.184;2023-07-13T15:04:44;5.13;;;2.88;;
65533;SDS011;53640;55.838;37.184;2023-07-13T15:07:12;4.15;;;2.85;;
65533;SDS011;53640;55.838;37.184;2023-07-13T15:09:41;4.38;;;3.03;;
65533;SDS011;53640;55.838;37.184;2023-07-13T15:12:08;5.13;;;2.80;;
65533;SDS011;53640;55.838;37.184;2023-07-13T15:14:34;3.67;;;3.30;;
65533;SDS011;53640;55.838;37.184;2023-07-13T15:17:02;5.10;;;3.20;;
65533;SDS011;53640;55.838;37.184;2023-07-13T15:19:30;7.28;;;3.35;;
65533;SDS011;53640;55.838;37.184;2023-07-13T15:21:57;6.93;;;3.30;;
65533;SDS011;53640;55.838;37.184;2023-07-13T15:24:24;8.70;;;3.72;;
65533;SDS011;53640;55.838;37.184;2023-07-13T15:26:51;4.25;;;2.90;;
65533;SDS011;53640;55.838;37.184;2023-07-13T15:29:18;9.10;;;3.55;;
65533;SDS011;53640;55.838;37.184;2023-07-13T15:31:44;3.33;;;3.03;;
65533;SDS011;53640;55.838;37.184;2023-07-13T15:34:12;6.40;;;3.17;;
65533;SDS011;53640;55.838;37.184;2023-07-13T15:36:42;6.72;;;3.20;;
65533;SDS011;53640;55.838;37.184;2023-07-13T15:39:13;3.67;;;2.80;;